Vasa, Minnesota
Current Conditions -  °F | °C
As of 9:50 AM on Friday 31 Oct 2014 (Local Time) from KRGK Reporting Station
Clear Clear  
Wind Chill: 23°   Ceiling: Unl
Heat Index: 32°   Visibility: 10mi
Dew Point: 18°   Wind: 12mph
Humidity: 55%   Direction: 10°N
Pressure: 30.51"   Gusts: NA
Location:  44.6055°N, 92.7163°W
Report Text: KRGK 311450Z AUTO 01010KT 10SM CLR 00/M08 A3051 RMK AO2
Loading
Personal Weather Stations






























Interactive Weather Map
Tropical Storm Tracking
New forecast layout! Learn more

10-Day Weather Forecast

Advertisements
Track Severe Weather on mobile